Data for 11/02/2008

Time Sea-Level Adjusted Pressure Absolute Pressure Temperature Relative Humidity Dew Point   
(mb) (inHg) (mb) (inHg) (C) (F) (%) (C) (F)
00:05 1016 30 845 24.95 11.1 51.9 56 2.6 36.6
00:10 1016 30 845 24.95 11.3 52.3 55 2.6 36.6
00:15 1016 30 845 24.95 11.3 52.3 56 2.8 37
00:20 1016 30 845 24.95 10.9 51.6 56 2.6 36.7
00:25 1016 30 845 24.95 11 51.8 55 2.4 36.3
00:30 1016 30 845 24.95 11.1 52.1 56 2.6 36.7
00:35 1016 30 845 24.95 11.1 52 55 2.4 36.3
00:40 1015 29.97 845 24.95 11.1 51.9 56 2.7 36.9
00:45 1015 29.97 845 24.95 10.6 51.1 57 2.5 36.5
00:50 1015 29.97 845 24.95 10.7 51.3 56 2.4 36.4
00:55 1015 29.97 845 24.95 10.8 51.5 56 2.4 36.3
01:00 1015 29.97 845 24.95 11 51.7 56 2.5 36.5
01:05 1015 29.97 844 24.92 11 51.9 55 2.4 36.2
01:10 1015 29.97 844 24.92 11 51.9 56 2.5 36.6
01:15 1015 29.97 844 24.92 11.1 51.9 55 2.5 36.4
01:20 1015 29.97 844 24.92 11.1 52 55 2.4 36.3
01:25 1015 29.97 844 24.92 11.3 52.3 55 2.6 36.7
01:30 1015 29.97 844 24.92 11.3 52.4 55 2.6 36.7
01:35 1015 29.97 844 24.92 11.7 53 53 2.5 36.6
01:40 1015 29.97 844 24.92 11.8 53.2 54 2.8 37.1
01:45 1015 29.97 844 24.92 11.5 52.8 55 2.8 37
01:50 1015 29.97 844 24.92 11.5 52.7 54 2.6 36.8
01:55 1015 29.97 844 24.92 11.7 53 54 2.7 36.9
02:00 1015 29.97 844 24.92 11.7 53.1 54 2.9 37.2
02:05 1015 29.97 844 24.92 11.4 52.5 56 2.9 37.2
02:10 1014 29.94 844 24.92 11.2 52.1 57 2.9 37.2
02:15 1014 29.94 844 24.92 10.8 51.5 58 3.1 37.5
02:20 1014 29.94 843 24.89 10.8 51.5 58 2.8 37.1
02:25 1014 29.94 843 24.89 11.2 52.1 56 2.7 36.8
02:30 1014 29.94 843 24.89 11.6 52.9 55 2.9 37.3
02:35 1014 29.94 843 24.89 11.6 53 55 3 37.4
02:40 1014 29.94 843 24.89 11.9 53.3 54 3 37.4
02:45 1014 29.94 843 24.89 12.1 53.7 55 3.4 38.1
02:50 1014 29.94 843 24.89 11.5 52.8 56 3.2 37.8
02:55 1014 29.94 843 24.89 11.8 53.3 55 3.2 37.7
03:00 1014 29.94 843 24.89 12.1 53.8 54 3.3 37.9
03:05 1014 29.94 843 24.89 12.2 54 55 3.4 38.1
03:10 1014 29.94 843 24.89 12.3 54.2 54 3.4 38.1
03:15 1014 29.94 843 24.89 12.5 54.5 54 3.4 38.1
03:20 1014 29.94 843 24.89 12.8 55 53 3.5 38.3
03:25 1014 29.94 843 24.89 12.7 54.9 54 3.6 38.5
03:30 1013 29.91 843 24.89 12.7 54.9 53 3.6 38.4
03:35 1013 29.91 843 24.89 12.8 55 53 3.6 38.5
03:40 1013 29.91 843 24.89 12.8 55 53 3.6 38.5
03:45 1013 29.91 842 24.86 12.8 55.1 53 3.6 38.6
03:50 1013 29.91 842 24.86 12.8 55 54 3.7 38.6
03:55 1013 29.91 842 24.86 12.6 54.7 54 3.6 38.6
04:00 1013 29.91 842 24.86 12.7 54.8 54 3.6 38.5
04:05 1013 29.91 842 24.86 12.8 55 54 3.7 38.7
04:10 1013 29.91 842 24.86 12.7 54.9 54 3.7 38.7
04:15 1013 29.91 842 24.86 12.6 54.6 55 3.9 38.9
04:20 1013 29.91 842 24.86 12.3 54.1 57 4 39.3
04:25 1013 29.91 842 24.86 12.1 53.8 56 3.6 38.4
04:30 1013 29.91 842 24.86 12.7 54.8 54 3.7 38.7
04:35 1012 29.88 842 24.86 12.6 54.6 54 3.5 38.4
04:40 1012 29.88 842 24.86 12.9 55.2 54 3.8 38.8
04:45 1012 29.88 841 24.83 12.9 55.3 55 4.1 39.4
04:50 1012 29.88 841 24.83 12.8 55 55 4.1 39.4
04:55 1012 29.88 841 24.83 12.8 55 56 4.2 39.5
05:00 1012 29.88 841 24.83 12.8 55.1 56 4.3 39.7
05:05 1012 29.88 841 24.83 13.2 55.7 55 4.3 39.7
05:10 1012 29.88 841 24.83 13.6 56.4 53 4.3 39.8
05:15 1012 29.88 841 24.83 13.6 56.5 54 4.5 40.1
05:20 1012 29.88 841 24.83 13.3 56 54 4.2 39.6
05:25 1012 29.88 841 24.83 13.7 56.6 53 4.4 39.9
05:30 1012 29.88 841 24.83 13.7 56.6 53 4.4 39.9
05:35 1012 29.88 841 24.83 13.7 56.7 53 4.4 40
05:40 1012 29.88 841 24.83 14.2 57.5 50 3.9 39.1
05:45 1012 29.88 841 24.83 14.2 57.5 51 4.2 39.6
05:50 1012 29.88 841 24.83 14.1 57.3 51 4 39.2
05:55 1012 29.88 841 24.83 14.1 57.4 51 4.1 39.4
06:00 1012 29.88 841 24.83 14.3 57.8 50 4.2 39.5
06:05 1012 29.88 841 24.83 14.1 57.4 52 4.4 39.8
06:10 1012 29.88 841 24.83 13.9 57 53 4.6 40.3
06:15 1012 29.88 841 24.83 13.4 56.1 55 4.6 40.4
06:20 1012 29.88 841 24.83 12.8 55 57 4.5 40.2
06:25 1012 29.88 841 24.83 12.5 54.4 59 4.6 40.4
06:30 1012 29.88 841 24.83 12.2 54 59 4.6 40.2
06:35 1012 29.88 841 24.83 12.2 53.9 57 4.1 39.4
06:40 1012 29.88 841 24.83 12.6 54.6 56 4.1 39.4
06:45 1012 29.88 841 24.83 12.7 54.9 56 4.2 39.6
06:50 1012 29.88 841 24.83 12.2 54 59 4.6 40.2
06:55 1012 29.88 841 24.83 11.2 52.1 61 4.1 39.4
07:00 1012 29.88 841 24.83 10.7 51.3 63 4 39.3
07:05 1012 29.88 841 24.83 10.3 50.5 64 3.8 38.9
07:10 1012 29.88 841 24.83 10.1 50.1 64 3.6 38.4
07:15 1012 29.88 841 24.83 10.1 50.1 64 3.5 38.4
07:20 1012 29.88 841 24.83 10.1 50.2 64 3.7 38.6
07:25 1012 29.88 841 24.83 10.1 50.2 65 3.8 38.9
07:30 1012 29.88 841 24.83 9.5 49.2 67 3.8 38.8
07:35 1012 29.88 841 24.83 9 48.2 68 3.4 38.1
07:40 1011 29.85 841 24.83 8.9 48 68 3.3 37.9
07:45 1011 29.85 841 24.83 8.7 47.6 69 3.3 38
07:50 1011 29.85 841 24.83 9 48.3 68 3.4 38.2
07:55 1011 29.85 841 24.83 8.7 47.6 69 3.4 38.2
08:00 1011 29.85 841 24.83 8.6 47.5 68 3.2 37.7
08:05 1012 29.88 841 24.83 8.5 47.4 70 3.4 38.1
08:10 1011 29.85 841 24.83 8.5 47.2 70 3.2 37.8
08:15 1012 29.88 841 24.83 8.6 47.5 68 3 37.4
08:20 1012 29.88 841 24.83 9.2 48.5 68 3.6 38.5
08:25 1012 29.88 841 24.83 9.6 49.3 64 3.1 37.7
08:30 1012 29.88 841 24.83 9.8 49.6 65 3.6 38.4
08:35 1011 29.85 841 24.83 9.6 49.3 65 3.4 38.2
08:40 1011 29.85 841 24.83 10.2 50.3 63 3.5 38.3
08:45 1011 29.85 841 24.83 9.7 49.5 66 3.8 38.8
08:50 1011 29.85 841 24.83 9 48.3 68 3.5 38.4
08:55 1011 29.85 840 24.81 9.4 48.8 67 3.5 38.3
09:00 1011 29.85 840 24.81 10 49.9 64 3.6 38.5
09:05 1011 29.85 840 24.81 9.8 49.6 67 3.8 38.9
09:10 1011 29.85 840 24.81 9.7 49.4 67 3.8 38.9
09:15 1011 29.85 840 24.81 9.9 49.7 66 3.9 39
09:20 1011 29.85 840 24.81 10 50.1 66 3.9 39.1
09:25 1011 29.85 840 24.81 10.3 50.5 65 4 39.1
09:30 1011 29.85 840 24.81 10.7 51.2 63 4 39.1
09:35 1011 29.85 840 24.81 11 51.8 62 4.1 39.4
09:40 1011 29.85 840 24.81 11.2 52.1 62 4.2 39.5
09:45 1011 29.85 840 24.81 11.5 52.6 61 4.2 39.6
09:50 1011 29.85 840 24.81 11.6 52.9 61 4.3 39.8
09:55 1011 29.85 840 24.81 11.7 53.1 60 4.3 39.7
10:00 1011 29.85 840 24.81 11.9 53.3 59 4.3 39.7
10:05 1011 29.85 840 24.81 12 53.6 59 4.3 39.8
10:10 1011 29.85 840 24.81 12.1 53.7 59 4.4 39.9
10:15 1010 29.83 840 24.81 12.2 53.9 59 4.4 39.9
10:20 1010 29.83 840 24.81 12.3 54.1 59 4.5 40.2
10:25 1010 29.83 840 24.81 12.3 54.2 58 4.4 39.9
10:30 1010 29.83 839 24.78 12.5 54.5 58 4.4 39.9
10:35 1010 29.83 839 24.78 12.7 54.9 56 4.3 39.7
10:40 1010 29.83 839 24.78 13.1 55.5 54 4.1 39.4
10:45 1010 29.83 839 24.78 13.5 56.2 53 4.1 39.5
10:50 1010 29.83 839 24.78 13.7 56.6 52 4 39.3
10:55 1010 29.83 839 24.78 13.6 56.5 52 4 39.2
11:00 1010 29.83 839 24.78 13.7 56.6 51 3.9 39
11:05 1010 29.83 839 24.78 13.7 56.6 51 3.8 38.8
11:10 1010 29.83 839 24.78 13.9 56.9 51 3.9 39
11:15 1010 29.83 839 24.78 14 57.3 49 3.7 38.7
11:20 1010 29.83 839 24.78 14.3 57.7 48 3.6 38.4
11:25 1009 29.8 839 24.78 14.5 58.1 48 3.6 38.5
11:30 1009 29.8 839 24.78 15 58.9 47 3.8 38.9
11:35 1009 29.8 839 24.78 15.2 59.3 47 3.9 39.1
11:40 1009 29.8 839 24.78 15.3 59.5 49 4.6 40.3
11:45 1009 29.8 839 24.78 15.4 59.8 52 5.6 42.1
11:50 1009 29.8 839 24.78 15 59.1 52 5.3 41.5
11:55 1009 29.8 839 24.78 15 59 51 5 40.9
12:00 1009 29.8 838 24.75 14.6 58.2 52 4.9 40.8
12:05 1009 29.8 839 24.78 14.3 57.7 53 4.9 40.8
12:10 1009 29.8 838 24.75 14.3 57.8 52 4.7 40.5
12:15 1009 29.8 838 24.75 14.4 57.9 52 4.9 40.8
12:20 1009 29.8 838 24.75 14.5 58 51 4.6 40.3
12:25 1009 29.8 838 24.75 14.6 58.3 51 4.8 40.6
12:30 1009 29.8 838 24.75 14.4 58 52 4.9 40.8
12:35 1009 29.8 838 24.75 14.4 57.9 52 4.8 40.7
12:40 1009 29.8 838 24.75 14.3 57.7 53 4.8 40.6
12:45 1009 29.8 838 24.75 14.2 57.6 54 5.2 41.4
12:50 1009 29.8 838 24.75 13.9 57 55 5.1 41.2
12:55 1009 29.8 838 24.75 13.7 56.7 55 5 40.9
13:00 1009 29.8 838 24.75 13.6 56.5 55 4.9 40.7
13:05 1009 29.8 838 24.75 13.9 57.1 54 4.9 40.8
13:10 1009 29.8 838 24.75 14.1 57.4 55 5.2 41.3
13:15 1009 29.8 838 24.75 13.5 56.3 58 5.4 41.8
13:20 1008 29.77 838 24.75 13.4 56.1 57 5.2 41.3
13:25 1008 29.77 838 24.75 13.2 55.8 58 5.2 41.4
13:30 1008 29.77 838 24.75 13.4 56 57 5.1 41.2
13:35 1008 29.77 838 24.75 13.5 56.3 57 5.2 41.4
13:40 1008 29.77 838 24.75 13.7 56.6 56 5.2 41.3
13:45 1008 29.77 838 24.75 13.9 57.1 55 5.3 41.5
13:50 1008 29.77 837 24.72 14.2 57.5 55 5.2 41.4
13:55 1008 29.77 837 24.72 14.1 57.4 55 5.2 41.4
14:00 1008 29.77 837 24.72 14.1 57.4 55 5.2 41.3
14:05 1008 29.77 837 24.72 14.1 57.4 54 5.1 41.2
14:10 1008 29.77 837 24.72 14.2 57.5 55 5.3 41.5
14:15 1008 29.77 837 24.72 14.2 57.6 55 5.3 41.5
14:20 1008 29.77 837 24.72 14.2 57.5 55 5.4 41.8
14:25 1008 29.77 837 24.72 14 57.2 56 5.5 41.9
14:30 1008 29.77 837 24.72 13.9 57 56 5.2 41.4
14:35 1008 29.77 837 24.72 13.9 56.9 55 5 41
14:40 1008 29.77 837 24.72 13.8 56.8 56 5.2 41.3
14:45 1008 29.77 837 24.72 13.7 56.7 58 5.8 42.4
14:50 1008 29.77 837 24.72 13.6 56.5 62 6.6 43.9
14:55 1008 29.77 837 24.72 13.4 56.1 65 6.9 44.5
15:00 1008 29.77 837 24.72 13.1 55.5 66 7 44.6
15:05 1008 29.77 837 24.72 12.8 55 68 7 44.6
15:10 1008 29.77 837 24.72 12.6 54.7 71 7.6 45.6
15:15 1008 29.77 837 24.72 12.4 54.2 71 7.3 45.2
15:20 1008 29.77 837 24.72 12.1 53.7 75 7.7 45.9
15:25 1008 29.77 837 24.72 11.7 53.1 77 7.8 46.1
15:30 1008 29.77 837 24.72 11.6 52.8 77 7.7 45.8
15:35 1008 29.77 837 24.72 11.4 52.5 77 7.6 45.7
15:40 1008 29.77 837 24.72 11.2 52.2 79 7.7 45.9
15:45 1008 29.77 837 24.72 11.2 52.2 79 7.7 45.9
15:50 1008 29.77 837 24.72 11.2 52.1 78 7.5 45.5
15:55 1008 29.77 837 24.72 11.2 52.1 78 7.6 45.6
16:00 1008 29.77 837 24.72 11 51.9 81 7.8 46.1
16:05 1008 29.77 838 24.75 10.7 51.3 82 7.8 46.1
16:10 1008 29.77 837 24.72 10.3 50.6 85 8 46.4
16:15 1008 29.77 837 24.72 10.1 50.2 87 8 46.5
16:20 1008 29.77 837 24.72 10 49.9 89 8.2 46.8
16:25 1008 29.77 837 24.72 9.8 49.6 89 8.1 46.5
16:30 1008 29.77 837 24.72 9.9 49.7 90 8.3 46.9
16:35 1008 29.77 838 24.75 9.7 49.5 91 8.2 46.8
16:40 1008 29.77 838 24.75 9.7 49.5 91 8.3 47
16:45 1008 29.77 837 24.72 9.8 49.7 90 8.3 47
16:50 1008 29.77 838 24.75 10 49.9 90 8.4 47.2
16:55 1008 29.77 838 24.75 10 49.9 91 8.5 47.3
17:00 1008 29.77 838 24.75 10 49.9 90 8.5 47.2
17:05 1008 29.77 838 24.75 9.8 49.7 92 8.5 47.3
17:10 1008 29.77 838 24.75 9.7 49.4 92 8.5 47.3
17:15 1008 29.77 838 24.75 9.7 49.4 93 8.7 47.6
17:20 1008 29.77 838 24.75 9.6 49.3 93 8.6 47.5
17:25 1009 29.8 838 24.75 9.5 49.1 94 8.6 47.4
17:30 1008 29.77 838 24.75 9.6 49.2 93 8.5 47.4
17:35 1009 29.8 838 24.75 9.6 49.2 93 8.5 47.2
17:40 1009 29.8 838 24.75 9.5 49.1 93 8.5 47.2
17:45 1009 29.8 838 24.75 9.5 49.1 94 8.6 47.5
17:50 1009 29.8 838 24.75 9.4 48.8 95 8.6 47.4
17:55 1009 29.8 838 24.75 9.3 48.7 94 8.4 47.1
18:00 1009 29.8 838 24.75 9.1 48.4 96 8.5 47.2
18:05 1009 29.8 838 24.75 9.2 48.6 96 8.6 47.4
18:10 1009 29.8 838 24.75 9.2 48.6 96 8.5 47.4
18:15 1009 29.8 838 24.75 9.1 48.4 95 8.4 47.1
18:20 1009 29.8 838 24.75 9.2 48.5 95 8.4 47.1
18:25 1009 29.8 838 24.75 9.2 48.5 96 8.5 47.3
18:30 1009 29.8 838 24.75 9.1 48.3 95 8.3 47
18:35 1009 29.8 838 24.75 9 48.3 95 8.3 47
18:40 1009 29.8 839 24.78 9 48.3 95 8.3 46.9
18:45 1009 29.8 839 24.78 9 48.2 94 8.1 46.6
18:50 1010 29.83 839 24.78 8.9 48 92 7.7 45.8
18:55 1010 29.83 839 24.78 8.9 47.9 89 7.2 44.9
19:00 1010 29.83 839 24.78 8.6 47.5 87 6.6 43.9
19:05 1010 29.83 839 24.78 8.4 47.2 88 6.5 43.7
19:10 1010 29.83 839 24.78 8.3 46.9 87 6.2 43.2
19:15 1010 29.83 839 24.78 8.2 46.7 88 6.3 43.3
19:20 1010 29.83 839 24.78 8.1 46.7 84 5.7 42.2
19:25 1010 29.83 839 24.78 8.1 46.6 81 5.1 41.1
19:30 1010 29.83 839 24.78 8.1 46.5 80 4.8 40.6
19:35 1010 29.83 839 24.78 8.1 46.5 75 4 39.2
19:40 1010 29.83 839 24.78 8.3 46.9 75 4.1 39.4
19:45 1010 29.83 839 24.78 8.3 47 77 4.6 40.3
19:50 1010 29.83 839 24.78 8.3 46.9 71 3.3 38
19:55 1010 29.83 839 24.78 8.6 47.5 72 3.8 38.9
20:00 1010 29.83 840 24.81 8.6 47.4 76 4.5 40.1
20:05 1010 29.83 840 24.81 8.4 47 77 4.5 40.1
20:10 1010 29.83 840 24.81 8.2 46.7 80 5 40.9
20:15 1011 29.85 840 24.81 8 46.4 81 5 40.9
20:20 1011 29.85 840 24.81 8 46.3 82 5.1 41.2
20:25 1011 29.85 840 24.81 7.9 46.3 82 5 41
20:30 1011 29.85 840 24.81 7.9 46.2 84 5.3 41.6
20:35 1011 29.85 840 24.81 7.7 45.9 85 5.4 41.7
20:40 1011 29.85 840 24.81 7.4 45.4 85 5.1 41.1
20:45 1011 29.85 840 24.81 7.2 44.9 86 5 41
20:50 1011 29.85 840 24.81 7.1 44.9 88 5.2 41.4
20:55 1011 29.85 840 24.81 7.2 45 87 5.2 41.4
21:00 1011 29.85 840 24.81 7.2 45 84 4.8 40.6
21:05 1011 29.85 840 24.81 7.3 45.1 85 5 40.9
21:10 1011 29.85 840 24.81 7.3 45.1 85 4.9 40.8
21:15 1011 29.85 840 24.81 7.4 45.4 86 5.2 41.3
21:20 1011 29.85 840 24.81 7.4 45.4 83 4.8 40.6
21:25 1011 29.85 840 24.81 7.4 45.2 84 4.8 40.7
21:30 1011 29.85 840 24.81 7.2 44.9 85 4.8 40.7
21:35 1011 29.85 840 24.81 7 44.7 86 4.9 40.8
21:40 1011 29.85 840 24.81 7.1 44.8 86 4.9 40.8
21:45 1011 29.85 840 24.81 7.3 45.1 86 5.1 41.2
21:50 1011 29.85 840 24.81 7.2 45 86 5.1 41.2
21:55 1011 29.85 840 24.81 7.3 45.1 85 4.9 40.8
22:00 1011 29.85 840 24.81 7.2 45 86 5 41
22:05 1011 29.85 840 24.81 7.2 45 86 5.1 41.1
22:10 1011 29.85 840 24.81 7.1 44.7 86 4.9 40.8
22:15 1011 29.85 840 24.81 6.9 44.4 87 4.9 40.8
22:20 1011 29.85 840 24.81 7 44.7 88 5.1 41.3
22:25 1011 29.85 840 24.81 6.7 44.1 90 5.2 41.4
22:30 1011 29.85 840 24.81 6.4 43.6 92 5.2 41.3
22:35 1011 29.85 840 24.81 6.4 43.5 92 5.2 41.3
22:40 1011 29.85 840 24.81 6.4 43.5 92 5.1 41.2
22:45 1011 29.85 840 24.81 6.4 43.5 92 5.1 41.2
22:50 1011 29.85 840 24.81 6.5 43.6 92 5.2 41.4
22:55 1011 29.85 840 24.81 6.6 43.8 90 5.1 41.2
23:00 1011 29.85 840 24.81 6.7 44.1 91 5.4 41.7
23:05 1011 29.85 840 24.81 6.8 44.3 91 5.4 41.8
23:10 1011 29.85 840 24.81 6.9 44.5 90 5.4 41.7
23:15 1011 29.85 841 24.83 7 44.5 90 5.4 41.8
23:20 1011 29.85 841 24.83 7 44.6 89 5.3 41.6
23:25 1012 29.88 841 24.83 7.1 44.7 88 5.3 41.5
23:30 1012 29.88 841 24.83 7.1 44.8 86 4.9 40.9
23:35 1012 29.88 841 24.83 7.2 45 82 4.4 39.9
23:40 1012 29.88 841 24.83 7.3 45.2 76 3.4 38.2
23:45 1012 29.88 841 24.83 7.3 45.2 76 3.4 38.2
23:50 1012 29.88 841 24.83 7.3 45.1 78 3.7 38.7
23:55 1012 29.88 841 24.83 7.2 45 80 4 39.1
24:00 1012 29.88 841 24.83 7.2 44.9 83 4.5 40